createdAt,value
2023-05-14T00:01:01.809Z,6
2023-05-14T00:02:16.112Z,6
2023-05-14T00:04:43.955Z,7
2023-05-14T00:05:58.216Z,7
2023-05-14T00:07:12.187Z,6
2023-05-14T00:08:26.364Z,7
2023-05-14T00:10:54.673Z,6
2023-05-14T00:12:08.725Z,7
2023-05-14T00:13:22.874Z,7
2023-05-14T00:15:51.151Z,6
2023-05-14T00:17:05.262Z,6
2023-05-14T00:18:19.433Z,6
2023-05-14T00:20:47.688Z,6
2023-05-14T00:22:01.796Z,6
2023-05-14T00:23:15.917Z,6
2023-05-14T00:25:44.207Z,6
2023-05-14T00:26:58.503Z,7
2023-05-14T00:28:12.479Z,6
2023-05-14T00:29:26.596Z,6
2023-05-14T00:31:54.944Z,7
2023-05-14T00:33:09.045Z,7
2023-05-14T00:34:23.166Z,7
2023-05-14T00:36:51.434Z,6
2023-05-14T00:38:05.583Z,7
2023-05-14T00:39:19.772Z,6
2023-05-14T00:41:47.902Z,7
2023-05-14T00:43:02.069Z,7
2023-05-14T00:44:16.286Z,7
2023-05-14T00:46:44.583Z,7
2023-05-14T00:47:58.778Z,7
2023-05-14T00:49:12.743Z,7
2023-05-14T00:50:27.024Z,6
2023-05-14T00:52:55.226Z,7
2023-05-14T00:54:09.252Z,6
2023-05-14T00:55:23.471Z,7
2023-05-14T00:57:51.644Z,7
2023-05-14T00:59:05.772Z,7
2023-05-14T01:00:19.946Z,7
2023-05-14T01:02:48.311Z,7
2023-05-14T01:04:02.476Z,7
2023-05-14T01:05:16.475Z,8
2023-05-14T01:07:44.801Z,7
2023-05-14T01:08:58.909Z,7
2023-05-14T01:10:13.069Z,7
2023-05-14T01:11:27.120Z,7
2023-05-14T01:13:55.441Z,7
2023-05-14T01:15:09.544Z,7
2023-05-14T01:16:23.696Z,7
2023-05-14T01:18:52.023Z,8
2023-05-14T01:20:06.130Z,7
2023-05-14T01:21:20.230Z,7
2023-05-14T01:23:48.413Z,6
2023-05-14T01:25:02.695Z,7
2023-05-14T01:26:16.700Z,7
2023-05-14T01:28:45.039Z,7
2023-05-14T01:29:59.142Z,6
2023-05-14T01:31:13.254Z,7
2023-05-14T01:32:27.455Z,6
2023-05-14T01:34:55.646Z,7
2023-05-14T01:36:09.820Z,6
2023-05-14T01:37:23.895Z,6
2023-05-14T01:39:52.229Z,6
2023-05-14T01:41:06.367Z,6
2023-05-14T01:42:20.459Z,6
2023-05-14T01:44:48.698Z,7
2023-05-14T01:46:02.941Z,7
2023-05-14T01:47:16.992Z,7
2023-05-14T01:49:45.377Z,7
2023-05-14T01:50:59.336Z,6
2023-05-14T01:52:13.540Z,7
2023-05-14T01:53:27.701Z,6
2023-05-14T01:55:55.906Z,6
2023-05-14T01:57:10.078Z,6
2023-05-14T01:58:24.202Z,6
2023-05-14T02:00:52.470Z,6
2023-05-14T02:02:06.627Z,6
2023-05-14T02:03:20.792Z,6
2023-05-14T02:05:48.955Z,6
2023-05-14T02:07:03.150Z,6
2023-05-14T02:08:17.287Z,6
2023-05-14T02:10:45.588Z,6
2023-05-14T02:11:59.652Z,6
2023-05-14T02:13:13.808Z,6
2023-05-14T02:15:42.082Z,7
2023-05-14T02:16:56.183Z,7
2023-05-14T02:18:10.402Z,7
2023-05-14T02:19:24.465Z,7
2023-05-14T02:21:52.756Z,8
2023-05-14T02:23:06.906Z,7
2023-05-14T02:24:20.984Z,7
2023-05-14T02:26:49.228Z,7
2023-05-14T02:28:03.368Z,7
2023-05-14T02:29:17.565Z,7
2023-05-14T02:31:45.965Z,7
2023-05-14T02:33:00.043Z,7
2023-05-14T02:34:14.078Z,7
2023-05-14T02:37:56.449Z,8
2023-05-14T02:39:10.624Z,7
2023-05-14T02:40:24.950Z,7
2023-05-14T02:42:52.963Z,8
2023-05-14T02:44:07.207Z,7
2023-05-14T02:45:21.224Z,7
2023-05-14T02:47:49.534Z,7
2023-05-14T02:49:03.644Z,7
2023-05-14T02:50:17.789Z,7
2023-05-14T02:52:46.035Z,7
2023-05-14T02:54:00.165Z,7
2023-05-14T02:55:14.338Z,7
2023-05-14T02:57:42.581Z,7
2023-05-14T02:58:56.703Z,7
2023-05-14T03:00:10.894Z,7
2023-05-14T03:01:25.086Z,8
2023-05-14T03:04:01.435Z,8
2023-05-14T03:05:15.648Z,7
2023-05-14T03:07:43.930Z,7
2023-05-14T03:08:57.952Z,8
2023-05-14T03:10:12.105Z,7
2023-05-14T03:11:26.218Z,7
2023-05-14T03:13:54.507Z,8
2023-05-14T03:15:08.623Z,7
2023-05-14T03:16:22.838Z,7
2023-05-14T03:18:51.078Z,7
2023-05-14T03:20:05.198Z,7
2023-05-14T03:21:19.349Z,7
2023-05-14T03:23:47.541Z,7
2023-05-14T03:25:01.650Z,7
2023-05-14T03:26:15.826Z,7
2023-05-14T03:27:30.046Z,7
2023-05-14T03:28:44.091Z,7
2023-05-14T03:29:58.350Z,7
2023-05-14T03:31:12.492Z,7
2023-05-14T03:32:26.532Z,7
2023-05-14T03:34:54.846Z,7
2023-05-14T03:36:08.907Z,8
2023-05-14T03:37:23.030Z,7
2023-05-14T03:39:51.323Z,7
2023-05-14T03:41:05.423Z,7
2023-05-14T03:42:19.579Z,7
2023-05-14T03:44:47.855Z,7
2023-05-14T03:46:01.950Z,7
2023-05-14T03:47:16.130Z,7
2023-05-14T03:49:44.400Z,8
2023-05-14T03:50:58.634Z,7
2023-05-14T03:52:12.677Z,7
2023-05-14T03:53:26.824Z,7
2023-05-14T03:55:55.073Z,7
2023-05-14T03:57:09.152Z,7
2023-05-14T03:58:23.270Z,7
2023-05-14T04:00:51.511Z,7
2023-05-14T04:02:05.785Z,6
2023-05-14T04:03:20.059Z,7
2023-05-14T04:05:48.094Z,7
2023-05-14T04:07:02.226Z,7
2023-05-14T04:08:16.472Z,6
2023-05-14T04:10:44.628Z,7
2023-05-14T04:11:58.893Z,7
2023-05-14T04:13:12.946Z,7
2023-05-14T04:14:27.037Z,6
2023-05-14T04:16:55.325Z,7
2023-05-14T04:18:09.576Z,7
2023-05-14T04:19:23.550Z,7
2023-05-14T04:21:51.821Z,6
2023-05-14T04:23:06.054Z,6
2023-05-14T04:24:20.167Z,6
2023-05-14T04:26:48.372Z,6
2023-05-14T04:28:02.576Z,6
2023-05-14T04:29:16.708Z,7
2023-05-14T04:31:45.049Z,7
2023-05-14T04:32:59.191Z,8
2023-05-14T04:34:13.172Z,8
2023-05-14T04:35:27.297Z,7
2023-05-14T04:37:55.560Z,7
2023-05-14T04:39:09.698Z,7
2023-05-14T04:40:24.005Z,7
2023-05-14T04:42:52.041Z,7
2023-05-14T04:44:06.263Z,7
2023-05-14T04:45:20.368Z,7
2023-05-14T04:47:48.648Z,7
2023-05-14T04:49:02.822Z,7
2023-05-14T04:50:16.891Z,7
2023-05-14T04:52:45.222Z,7
2023-05-14T04:53:59.283Z,6
2023-05-14T04:55:13.566Z,7
2023-05-14T04:56:27.537Z,7
2023-05-14T04:58:55.821Z,6
2023-05-14T05:00:10.070Z,6
2023-05-14T05:01:24.165Z,7
2023-05-14T05:03:52.406Z,7
2023-05-14T05:05:06.506Z,7
2023-05-14T05:06:20.738Z,7
2023-05-14T05:08:48.885Z,7
2023-05-14T05:10:03.062Z,7
2023-05-14T05:11:17.197Z,6
2023-05-14T05:13:45.481Z,6
2023-05-14T05:14:59.538Z,6
2023-05-14T05:16:13.851Z,7
2023-05-14T05:18:42.070Z,6
2023-05-14T05:19:56.094Z,7
2023-05-14T05:21:10.208Z,7
2023-05-14T05:22:24.365Z,7
2023-05-14T05:24:52.713Z,7
2023-05-14T05:26:06.858Z,7
2023-05-14T05:27:20.865Z,6
2023-05-14T05:29:49.159Z,6
2023-05-14T05:31:03.319Z,6
2023-05-14T05:32:17.481Z,7
2023-05-14T05:34:45.748Z,7
2023-05-14T05:35:59.821Z,7
2023-05-14T05:37:14.005Z,7
2023-05-14T05:39:42.214Z,6
2023-05-14T05:40:56.350Z,6
2023-05-14T05:42:10.540Z,7
2023-05-14T05:43:24.607Z,6
2023-05-14T05:45:52.955Z,6
2023-05-14T05:47:07.127Z,6
2023-05-14T05:48:21.141Z,7
2023-05-14T05:50:49.451Z,6
2023-05-14T05:52:03.638Z,7
2023-05-14T05:53:17.679Z,7
2023-05-14T05:55:45.967Z,6
2023-05-14T05:57:00.087Z,6
2023-05-14T05:58:14.225Z,6
2023-05-14T05:59:28.401Z,6
2023-05-14T06:01:56.673Z,7
2023-05-14T06:03:10.790Z,6
2023-05-14T06:04:24.920Z,6
2023-05-14T06:06:53.208Z,6
2023-05-14T06:08:07.343Z,6
2023-05-14T06:09:21.410Z,6
2023-05-14T06:11:49.754Z,6
2023-05-14T06:13:03.894Z,6
2023-05-14T06:14:17.973Z,5
2023-05-14T06:16:46.332Z,5
2023-05-14T06:18:00.414Z,5
2023-05-14T06:19:14.661Z,6
2023-05-14T06:21:42.865Z,6
2023-05-14T06:22:56.922Z,5
2023-05-14T06:24:11.019Z,6
2023-05-14T06:25:25.150Z,5
2023-05-14T06:27:53.462Z,5
2023-05-14T06:29:07.572Z,5
2023-05-14T06:30:21.819Z,5
2023-05-14T06:32:50.058Z,6
2023-05-14T06:34:04.253Z,5
2023-05-14T06:35:18.236Z,5
2023-05-14T06:37:46.540Z,5
2023-05-14T06:39:00.589Z,5
2023-05-14T06:40:14.857Z,6
2023-05-14T06:42:43.027Z,5
2023-05-14T06:43:57.150Z,5
2023-05-14T06:45:11.340Z,5
2023-05-14T06:46:25.461Z,5
2023-05-14T06:48:53.822Z,5
2023-05-14T06:50:09.524Z,5
2023-05-14T06:51:21.940Z,5
2023-05-14T06:53:50.224Z,5
2023-05-14T06:55:04.366Z,5
2023-05-14T06:56:18.512Z,5
2023-05-14T06:58:46.795Z,5
2023-05-14T07:00:03.170Z,5
2023-05-14T07:01:15.115Z,5
2023-05-14T07:03:43.322Z,5
2023-05-14T07:04:57.458Z,5
2023-05-14T07:06:13.566Z,5
2023-05-14T07:07:25.787Z,5
2023-05-14T07:09:53.954Z,8
2023-05-14T07:11:08.113Z,6
2023-05-14T07:12:22.255Z,5
2023-05-14T07:14:50.561Z,5
2023-05-14T07:16:04.727Z,5
2023-05-14T07:17:18.841Z,5
2023-05-14T07:19:47.060Z,5
2023-05-14T07:21:01.132Z,4
2023-05-14T07:22:15.299Z,5
2023-05-14T07:24:43.580Z,5
2023-05-14T07:25:57.692Z,6
2023-05-14T07:27:11.843Z,5
2023-05-14T07:28:26.017Z,5
2023-05-14T07:30:54.251Z,5
2023-05-14T07:32:08.358Z,4
2023-05-14T07:33:22.836Z,4
2023-05-14T07:35:50.872Z,5
2023-05-14T07:37:04.956Z,5
2023-05-14T07:38:19.028Z,5
2023-05-14T07:40:47.285Z,5
2023-05-14T07:42:01.680Z,5
2023-05-14T07:43:15.687Z,5
2023-05-14T07:45:43.864Z,5
2023-05-14T07:46:57.967Z,5
2023-05-14T07:48:12.532Z,5
2023-05-14T07:49:26.273Z,6
2023-05-14T07:51:54.502Z,5
2023-05-14T07:53:08.652Z,5
2023-05-14T07:54:22.761Z,4
2023-05-14T07:56:51.063Z,5
2023-05-14T07:58:05.211Z,5
2023-05-14T07:59:19.284Z,5
2023-05-14T08:01:47.591Z,5
2023-05-14T08:03:01.821Z,5
2023-05-14T08:04:15.952Z,5
2023-05-14T08:05:30.055Z,5
2023-05-14T08:06:44.094Z,5
2023-05-14T08:07:58.229Z,5
2023-05-14T08:09:12.442Z,5
2023-05-14T08:10:27.079Z,5
2023-05-14T08:12:54.754Z,6
2023-05-14T08:14:08.908Z,7
2023-05-14T08:15:24.046Z,6
2023-05-14T08:17:51.338Z,6
2023-05-14T08:19:05.559Z,6
2023-05-14T08:20:19.607Z,6
2023-05-14T08:22:47.826Z,5
2023-05-14T08:24:02.008Z,6
2023-05-14T08:25:16.163Z,6
2023-05-14T08:27:44.344Z,5
2023-05-14T08:28:58.628Z,5
2023-05-14T08:30:12.730Z,6
2023-05-14T08:31:27.010Z,5
2023-05-14T08:33:55.045Z,5
2023-05-14T08:35:09.138Z,5
2023-05-14T08:36:23.279Z,5
2023-05-14T08:38:51.652Z,5
2023-05-14T08:40:05.708Z,5
2023-05-14T08:41:19.832Z,5
2023-05-14T08:43:48.171Z,5
2023-05-14T08:45:02.313Z,5
2023-05-14T08:46:16.367Z,5
2023-05-14T08:48:44.714Z,6
2023-05-14T08:49:58.920Z,10
2023-05-14T08:51:12.906Z,5
2023-05-14T08:52:27.081Z,5
2023-05-14T08:54:55.288Z,5
2023-05-14T08:56:09.426Z,12
2023-05-14T08:57:23.576Z,11
2023-05-14T08:59:51.811Z,5
2023-05-14T09:01:06.025Z,4
2023-05-14T09:02:20.186Z,4
2023-05-14T09:04:48.357Z,4
2023-05-14T09:06:02.592Z,4
2023-05-14T09:07:16.728Z,4
2023-05-14T09:09:44.889Z,5
2023-05-14T09:10:59.198Z,5
2023-05-14T09:12:13.183Z,4
2023-05-14T09:13:28.370Z,5
2023-05-14T09:15:55.588Z,5
2023-05-14T09:17:09.751Z,5
2023-05-14T09:18:23.847Z,4
2023-05-14T09:20:52.119Z,4
2023-05-14T09:22:06.449Z,4
2023-05-14T09:23:20.391Z,4
2023-05-14T09:25:48.635Z,4
2023-05-14T09:27:02.833Z,4
2023-05-14T09:28:16.967Z,5
2023-05-14T09:30:45.260Z,4
2023-05-14T09:31:59.544Z,4
2023-05-14T09:33:13.533Z,4
2023-05-14T09:34:27.584Z,4
2023-05-14T09:36:55.931Z,4
2023-05-14T09:38:10.059Z,4
2023-05-14T09:39:24.104Z,4
2023-05-14T09:41:52.384Z,4
2023-05-14T09:43:06.486Z,4
2023-05-14T09:44:20.656Z,4
2023-05-14T09:46:48.890Z,4
2023-05-14T09:48:03.335Z,3
2023-05-14T09:49:17.233Z,3
2023-05-14T09:51:45.433Z,3
2023-05-14T09:52:59.578Z,4
2023-05-14T09:54:13.749Z,3
2023-05-14T09:56:41.958Z,3
2023-05-14T09:57:56.174Z,3
2023-05-14T09:59:10.272Z,3
2023-05-14T10:00:24.583Z,3
2023-05-14T10:02:52.746Z,3
2023-05-14T10:04:07.030Z,3
2023-05-14T10:05:20.876Z,3
2023-05-14T10:07:49.180Z,4
2023-05-14T10:09:03.290Z,3
2023-05-14T10:10:17.566Z,4
2023-05-14T10:12:45.705Z,3
2023-05-14T10:13:59.798Z,3
2023-05-14T10:15:14.006Z,3
2023-05-14T10:17:42.261Z,3
2023-05-14T10:18:57.489Z,3
2023-05-14T10:20:10.593Z,4
2023-05-14T10:21:24.618Z,3
2023-05-14T10:23:52.956Z,3
2023-05-14T10:25:07.094Z,3
2023-05-14T10:26:23.879Z,3
2023-05-14T10:28:49.425Z,3
2023-05-14T10:30:03.565Z,3
2023-05-14T10:31:17.726Z,3
2023-05-14T10:33:46.079Z,3
2023-05-14T10:35:00.243Z,3
2023-05-14T10:36:14.248Z,3
2023-05-14T10:38:42.491Z,3
2023-05-14T10:39:56.644Z,3
2023-05-14T10:41:10.759Z,3
2023-05-14T10:42:24.892Z,2
2023-05-14T10:44:53.217Z,3
2023-05-14T10:46:07.317Z,3
2023-05-14T10:47:21.476Z,3
2023-05-14T10:49:49.729Z,3
2023-05-14T10:51:03.927Z,2
2023-05-14T10:52:17.968Z,3
2023-05-14T10:54:46.325Z,3
2023-05-14T10:56:00.370Z,3
2023-05-14T10:57:14.598Z,3
2023-05-14T10:59:42.785Z,3
2023-05-14T11:00:56.902Z,3
2023-05-14T11:02:11.092Z,3
2023-05-14T11:03:25.229Z,4
2023-05-14T11:05:53.461Z,3
2023-05-14T11:07:07.556Z,3
2023-05-14T11:08:23.941Z,3
2023-05-14T11:10:50.040Z,3
2023-05-14T11:12:04.161Z,3
2023-05-14T11:13:18.249Z,3
2023-05-14T11:15:46.561Z,3
2023-05-14T11:17:00.685Z,3
2023-05-14T11:18:14.860Z,3
2023-05-14T11:19:28.929Z,3
2023-05-14T11:21:57.182Z,3
2023-05-14T11:23:11.366Z,3
2023-05-14T11:24:25.433Z,3
2023-05-14T11:26:53.822Z,3
2023-05-14T11:28:07.848Z,3
2023-05-14T11:29:22.083Z,3
2023-05-14T11:31:50.258Z,3
2023-05-14T11:33:04.560Z,3
2023-05-14T11:34:18.516Z,3
2023-05-14T11:36:46.828Z,3
2023-05-14T11:38:00.878Z,3
2023-05-14T11:39:15.067Z,3
2023-05-14T11:41:43.316Z,3
2023-05-14T11:42:57.433Z,3
2023-05-14T11:44:11.619Z,4
2023-05-14T11:45:25.796Z,3
2023-05-14T11:47:54.241Z,2
2023-05-14T11:49:08.129Z,3
2023-05-14T11:50:22.531Z,3
2023-05-14T11:52:50.592Z,3
2023-05-14T11:54:04.740Z,3
2023-05-14T11:55:18.769Z,3
2023-05-14T11:57:47.127Z,3
2023-05-14T11:59:01.165Z,4
2023-05-14T12:00:15.376Z,3
2023-05-14T12:02:43.739Z,3
2023-05-14T12:03:57.815Z,4
2023-05-14T12:05:11.825Z,4
2023-05-14T12:06:26.001Z,4
2023-05-14T12:08:54.236Z,3
2023-05-14T12:10:08.375Z,4
2023-05-14T12:11:22.546Z,4
2023-05-14T12:13:50.750Z,4
2023-05-14T12:15:05.081Z,4
2023-05-14T12:16:19.095Z,4
2023-05-14T12:18:47.343Z,4
2023-05-14T12:20:01.429Z,4
2023-05-14T12:21:15.661Z,5
2023-05-14T12:23:43.823Z,4
2023-05-14T12:24:57.965Z,4
2023-05-14T12:26:12.146Z,3
2023-05-14T12:27:26.353Z,4
2023-05-14T12:29:54.677Z,3
2023-05-14T12:31:08.740Z,4
2023-05-14T12:32:22.846Z,3
2023-05-14T12:34:51.065Z,3
2023-05-14T12:36:20.397Z,3
2023-05-14T12:37:19.355Z,3
2023-05-14T12:39:47.575Z,3
2023-05-14T12:41:01.748Z,3
2023-05-14T12:42:16.251Z,3
2023-05-14T12:43:29.973Z,4
2023-05-14T12:44:44.177Z,4
2023-05-14T12:45:58.242Z,4
2023-05-14T12:47:12.395Z,4
2023-05-14T12:48:26.610Z,4
2023-05-14T12:50:54.886Z,3
2023-05-14T12:53:23.027Z,3
2023-05-14T12:55:51.271Z,3
2023-05-14T12:57:05.483Z,3
2023-05-14T12:58:19.580Z,3
2023-05-14T13:00:47.956Z,3
2023-05-14T13:02:01.939Z,4
2023-05-14T13:03:16.230Z,3
2023-05-14T13:05:44.366Z,3
2023-05-14T13:06:58.490Z,3
2023-05-14T13:08:12.631Z,3
2023-05-14T13:09:26.846Z,3
2023-05-14T13:11:55.106Z,4
2023-05-14T13:13:09.174Z,4
2023-05-14T13:14:23.353Z,4
2023-05-14T13:16:51.559Z,3
2023-05-14T13:18:05.961Z,3
2023-05-14T13:19:19.954Z,3
2023-05-14T13:21:48.092Z,3
2023-05-14T13:23:02.277Z,3
2023-05-14T13:24:16.417Z,3
2023-05-14T13:26:44.637Z,3
2023-05-14T13:27:58.898Z,3
2023-05-14T13:29:12.902Z,3
2023-05-14T13:30:27.043Z,3
2023-05-14T13:32:55.455Z,3
2023-05-14T13:34:09.468Z,3
2023-05-14T13:35:23.807Z,3
2023-05-14T13:37:51.880Z,2
2023-05-14T13:39:06.039Z,2
2023-05-14T13:40:20.180Z,3
2023-05-14T13:42:48.360Z,3
2023-05-14T13:44:02.504Z,2
2023-05-14T13:45:16.734Z,2
2023-05-14T13:47:45.061Z,3
2023-05-14T13:48:59.206Z,2
2023-05-14T13:50:13.186Z,2
2023-05-14T13:51:27.330Z,2
2023-05-14T13:53:55.981Z,2
2023-05-14T13:55:09.740Z,2
2023-05-14T13:56:23.906Z,2
2023-05-14T13:58:52.111Z,3
2023-05-14T14:00:06.252Z,2
2023-05-14T14:01:20.410Z,2
2023-05-14T14:03:48.676Z,3
2023-05-14T14:05:02.858Z,2
2023-05-14T14:06:17.185Z,2
2023-05-14T14:08:45.273Z,2
2023-05-14T14:09:59.609Z,2
2023-05-14T14:11:13.464Z,2
2023-05-14T14:12:27.625Z,2
2023-05-14T14:14:55.981Z,2
2023-05-14T14:16:10.108Z,2
2023-05-14T14:17:24.141Z,2
2023-05-14T14:19:52.396Z,2
2023-05-14T14:21:06.528Z,2
2023-05-14T14:22:20.661Z,2
2023-05-14T14:24:48.912Z,2
2023-05-14T14:26:03.103Z,2
2023-05-14T14:27:17.218Z,2
2023-05-14T14:29:45.543Z,2
2023-05-14T14:30:59.723Z,2
2023-05-14T14:32:13.737Z,2
2023-05-14T14:34:42.035Z,2
2023-05-14T14:35:56.207Z,2
2023-05-14T14:37:10.318Z,2
2023-05-14T14:38:24.378Z,2
2023-05-14T14:40:52.667Z,2
2023-05-14T14:42:06.889Z,2
2023-05-14T14:43:20.916Z,2
2023-05-14T14:45:49.357Z,2
2023-05-14T14:47:03.329Z,2
2023-05-14T14:48:17.475Z,2
2023-05-14T14:50:45.812Z,2
2023-05-14T14:51:59.859Z,2
2023-05-14T14:54:28.174Z,2
2023-05-14T14:56:56.426Z,3
2023-05-14T14:58:10.536Z,2
2023-05-14T14:59:24.665Z,2
2023-05-14T15:01:52.910Z,2
2023-05-14T15:03:07.333Z,2
2023-05-14T15:04:21.471Z,2
2023-05-14T15:06:49.486Z,2
2023-05-14T15:08:03.583Z,2
2023-05-14T15:09:17.964Z,2
2023-05-14T15:11:46.098Z,2
2023-05-14T15:13:00.140Z,1
2023-05-14T15:14:14.262Z,2
2023-05-14T15:16:42.587Z,2
2023-05-14T15:17:56.739Z,1
2023-05-14T15:19:11.173Z,2
2023-05-14T15:20:24.934Z,2
2023-05-14T15:22:53.285Z,1
2023-05-14T15:24:07.490Z,2
2023-05-14T15:25:21.647Z,2
2023-05-14T15:27:49.875Z,2
2023-05-14T15:29:03.966Z,2
2023-05-14T15:30:18.149Z,2
2023-05-14T15:32:46.473Z,1
2023-05-14T15:34:00.573Z,2
2023-05-14T15:35:15.098Z,1
2023-05-14T15:37:43.112Z,1
2023-05-14T15:38:56.949Z,2
2023-05-14T15:40:12.213Z,1
2023-05-14T15:41:25.209Z,1
2023-05-14T15:43:53.616Z,2
2023-05-14T15:45:07.865Z,2
2023-05-14T15:46:22.050Z,2
2023-05-14T15:47:36.179Z,1
2023-05-14T15:48:50.124Z,1
2023-05-14T15:50:04.293Z,2
2023-05-14T15:51:18.395Z,2
2023-05-14T15:53:46.635Z,2
2023-05-14T15:55:00.713Z,1
2023-05-14T15:56:14.933Z,2
2023-05-14T15:58:43.158Z,2
2023-05-14T15:59:57.254Z,1
2023-05-14T16:01:11.385Z,2
2023-05-14T16:02:25.529Z,2
2023-05-14T16:04:53.724Z,1
2023-05-14T16:06:08.032Z,1
2023-05-14T16:07:22.031Z,1
2023-05-14T16:09:50.317Z,1
2023-05-14T16:11:04.581Z,1
2023-05-14T16:12:18.695Z,1
2023-05-14T16:14:46.871Z,1
2023-05-14T16:16:00.977Z,1
2023-05-14T16:17:15.211Z,1
2023-05-14T16:19:43.432Z,1
2023-05-14T16:20:57.484Z,1
2023-05-14T16:22:11.647Z,1
2023-05-14T16:23:25.770Z,1
2023-05-14T16:25:54.023Z,1
2023-05-14T16:27:08.222Z,1
2023-05-14T16:28:22.240Z,1
2023-05-14T16:30:50.511Z,1
2023-05-14T16:32:04.895Z,1
2023-05-14T16:33:19.090Z,1
2023-05-14T16:35:47.062Z,1
2023-05-14T16:37:01.170Z,1
2023-05-14T16:38:15.340Z,1
2023-05-14T16:40:43.593Z,1
2023-05-14T16:41:57.698Z,1
2023-05-14T16:43:11.842Z,1
2023-05-14T16:44:26.432Z,1
2023-05-14T16:46:54.594Z,1
2023-05-14T16:48:08.518Z,1
2023-05-14T16:49:22.585Z,1
2023-05-14T16:51:50.761Z,1
2023-05-14T16:53:04.989Z,1
2023-05-14T16:54:19.126Z,1
2023-05-14T16:56:47.387Z,1
2023-05-14T16:58:01.426Z,1
2023-05-14T16:59:15.670Z,1
2023-05-14T17:01:43.973Z,1
2023-05-14T17:02:58.001Z,1
2023-05-14T17:04:12.134Z,1
2023-05-14T17:05:26.439Z,1
2023-05-14T17:07:54.515Z,1
2023-05-14T17:09:08.672Z,1
2023-05-14T17:10:22.793Z,1
2023-05-14T17:12:51.047Z,1
2023-05-14T17:14:05.180Z,1
2023-05-14T17:15:19.415Z,1
2023-05-14T17:17:47.940Z,1
2023-05-14T17:19:01.876Z,1
2023-05-14T17:20:16.977Z,1
2023-05-14T17:22:44.168Z,1
2023-05-14T17:23:58.236Z,1
2023-05-14T17:25:12.359Z,1
2023-05-14T17:26:26.590Z,1
2023-05-14T17:28:54.890Z,1
2023-05-14T17:30:09.092Z,1
2023-05-14T17:31:23.166Z,2
2023-05-14T17:33:51.332Z,2
2023-05-14T17:35:05.464Z,2
2023-05-14T17:36:19.556Z,1
2023-05-14T17:38:47.842Z,1
2023-05-14T17:40:01.989Z,1
2023-05-14T17:41:16.135Z,1
2023-05-14T17:43:44.370Z,1
2023-05-14T17:44:58.486Z,1
2023-05-14T17:46:12.747Z,1
2023-05-14T17:47:26.930Z,1
2023-05-14T17:49:55.053Z,2
2023-05-14T17:51:09.280Z,1
2023-05-14T17:52:23.460Z,1
2023-05-14T17:54:51.553Z,1
2023-05-14T17:56:05.803Z,1
2023-05-14T17:57:20.027Z,1
2023-05-14T17:59:48.264Z,1
2023-05-14T18:01:02.369Z,4
2023-05-14T18:02:16.495Z,2
2023-05-14T18:04:44.688Z,1
2023-05-14T18:05:58.836Z,1
2023-05-14T18:07:12.923Z,1
2023-05-14T18:08:27.070Z,1
2023-05-14T18:10:55.322Z,1
2023-05-14T18:12:09.505Z,1
2023-05-14T18:13:23.575Z,1
2023-05-14T18:15:51.874Z,1
2023-05-14T18:17:06.129Z,1
2023-05-14T18:18:20.191Z,1
2023-05-14T18:20:48.487Z,1
2023-05-14T18:22:02.535Z,1
2023-05-14T18:23:16.760Z,1
2023-05-14T18:25:45.024Z,1
2023-05-14T18:26:59.517Z,1
2023-05-14T18:28:13.198Z,1
2023-05-14T18:29:27.411Z,1
2023-05-14T18:31:55.596Z,1
2023-05-14T18:33:09.798Z,1
2023-05-14T18:34:23.895Z,1
2023-05-14T18:36:52.113Z,1
2023-05-14T18:38:06.285Z,1
2023-05-14T18:39:20.374Z,1
2023-05-14T18:41:48.699Z,1
2023-05-14T18:43:02.808Z,2
2023-05-14T18:44:16.990Z,1
2023-05-14T18:46:45.237Z,2
2023-05-14T18:47:59.998Z,2
2023-05-14T18:49:13.480Z,2
2023-05-14T18:50:27.690Z,1
2023-05-14T18:52:55.959Z,1
2023-05-14T18:54:10.086Z,2
2023-05-14T18:55:24.430Z,2
2023-05-14T18:57:52.402Z,2
2023-05-14T18:59:06.628Z,2
2023-05-14T19:00:20.639Z,2
2023-05-14T19:02:49.033Z,2
2023-05-14T19:04:05.217Z,1
2023-05-14T19:05:17.188Z,1
2023-05-14T19:07:45.581Z,1
2023-05-14T19:08:59.869Z,1
2023-05-14T19:10:13.743Z,1
2023-05-14T19:12:42.012Z,1
2023-05-14T19:13:56.183Z,2
2023-05-14T19:15:10.224Z,1
2023-05-14T19:16:24.491Z,2
2023-05-14T19:18:52.728Z,2
2023-05-14T19:20:06.867Z,1
2023-05-14T19:21:20.936Z,1
2023-05-14T19:23:49.283Z,2
2023-05-14T19:25:04.406Z,2
2023-05-14T19:26:17.554Z,1
2023-05-14T19:28:45.826Z,1
2023-05-14T19:29:59.966Z,1
2023-05-14T19:31:14.025Z,2
2023-05-14T19:32:28.277Z,1
2023-05-14T19:34:56.455Z,1
2023-05-14T19:36:10.528Z,1
2023-05-14T19:37:24.668Z,2
2023-05-14T19:39:52.963Z,1
2023-05-14T19:41:07.219Z,2
2023-05-14T19:42:21.166Z,2
2023-05-14T19:44:49.470Z,2
2023-05-14T19:46:04.444Z,2
2023-05-14T19:47:17.808Z,2
2023-05-14T19:49:46.102Z,2
2023-05-14T19:51:00.115Z,2
2023-05-14T19:52:14.241Z,2
2023-05-14T19:54:42.532Z,2
2023-05-14T19:55:56.745Z,2
2023-05-14T19:57:10.793Z,2
2023-05-14T19:58:24.927Z,2
2023-05-14T20:00:53.224Z,2
2023-05-14T20:02:07.354Z,2
2023-05-14T20:03:21.488Z,2
2023-05-14T20:05:49.766Z,2
2023-05-14T20:07:03.864Z,2
2023-05-14T20:08:18.029Z,2
2023-05-14T20:10:46.298Z,2
2023-05-14T20:12:00.367Z,2
2023-05-14T20:13:14.672Z,2
2023-05-14T20:15:42.779Z,2
2023-05-14T20:16:56.976Z,2
2023-05-14T20:18:11.057Z,2
2023-05-14T20:19:25.275Z,2
2023-05-14T20:21:53.488Z,2
2023-05-14T20:23:07.691Z,2
2023-05-14T20:24:21.708Z,2
2023-05-14T20:25:35.862Z,2
2023-05-14T20:26:50.112Z,2
2023-05-14T20:28:04.153Z,2
2023-05-14T20:29:18.370Z,2
2023-05-14T20:31:46.546Z,2
2023-05-14T20:33:00.705Z,2
2023-05-14T20:34:14.800Z,2
2023-05-14T20:36:43.079Z,2
2023-05-14T20:37:57.181Z,2
2023-05-14T20:39:11.306Z,2
2023-05-14T20:40:25.504Z,2
2023-05-14T20:42:53.722Z,2
2023-05-14T20:44:07.861Z,2
2023-05-14T20:45:22.069Z,2
2023-05-14T20:47:50.278Z,2
2023-05-14T20:49:04.480Z,3
2023-05-14T20:50:18.617Z,2
2023-05-14T20:52:46.875Z,2
2023-05-14T20:54:00.926Z,2
2023-05-14T20:55:15.118Z,2
2023-05-14T20:56:29.238Z,2
2023-05-14T20:57:43.575Z,2
2023-05-14T20:58:57.469Z,2
2023-05-14T21:00:11.909Z,2
2023-05-14T21:01:25.763Z,2
2023-05-14T21:03:54.178Z,2
2023-05-14T21:05:33.399Z,2
2023-05-14T21:06:22.368Z,2
2023-05-14T21:08:50.529Z,2
2023-05-14T21:10:04.807Z,3
2023-05-14T21:11:18.920Z,2
2023-05-14T21:13:47.174Z,2
2023-05-14T21:15:01.283Z,2
2023-05-14T21:16:15.655Z,2
2023-05-14T21:18:43.837Z,2
2023-05-14T21:19:57.925Z,2
2023-05-14T21:21:11.914Z,2
2023-05-14T21:22:26.019Z,2
2023-05-14T21:24:54.336Z,2
2023-05-14T21:26:08.406Z,3
2023-05-14T21:27:22.695Z,2
2023-05-14T21:29:50.797Z,2
2023-05-14T21:31:05.040Z,3
2023-05-14T21:32:19.096Z,3
2023-05-14T21:34:47.488Z,3
2023-05-14T21:36:01.503Z,3
2023-05-14T21:37:15.873Z,3
2023-05-14T21:39:43.965Z,4
2023-05-14T21:40:58.039Z,3
2023-05-14T21:42:12.156Z,4
2023-05-14T21:43:26.293Z,4
2023-05-14T21:45:54.673Z,4
2023-05-14T21:47:08.935Z,3
2023-05-14T21:48:23.117Z,3
2023-05-14T21:50:51.151Z,3
2023-05-14T21:52:05.351Z,3
2023-05-14T21:53:19.356Z,3
2023-05-14T21:55:47.801Z,3
2023-05-14T21:57:01.739Z,3
2023-05-14T21:58:15.927Z,3
2023-05-14T22:00:44.174Z,4
2023-05-14T22:03:12.654Z,3
2023-05-14T22:04:26.594Z,3
2023-05-14T22:06:54.809Z,4
2023-05-14T22:08:09.197Z,4
2023-05-14T22:09:23.111Z,4
2023-05-14T22:11:51.310Z,3
2023-05-14T22:13:05.653Z,3
2023-05-14T22:14:19.679Z,3
2023-05-14T22:16:47.951Z,4
2023-05-14T22:18:02.218Z,5
2023-05-14T22:19:16.506Z,5
2023-05-14T22:21:44.547Z,5
2023-05-14T22:22:58.576Z,7
2023-05-14T22:24:12.760Z,7
2023-05-14T22:25:27.065Z,6
2023-05-14T22:27:55.200Z,6
2023-05-14T22:29:09.260Z,6
2023-05-14T22:30:23.342Z,5
2023-05-14T22:32:51.754Z,5
2023-05-14T22:34:08.396Z,4
2023-05-14T22:35:20.139Z,5
2023-05-14T22:37:48.313Z,4
2023-05-14T22:39:02.342Z,4
2023-05-14T22:40:16.488Z,4
2023-05-14T22:42:44.974Z,4
2023-05-14T22:43:58.949Z,3
2023-05-14T22:45:13.108Z,4
2023-05-14T22:46:27.216Z,4
2023-05-14T22:48:55.392Z,3
2023-05-14T22:50:09.630Z,3
2023-05-14T22:51:23.644Z,3
2023-05-14T22:53:51.905Z,3
2023-05-14T22:55:06.074Z,3
2023-05-14T22:56:20.190Z,3
2023-05-14T22:58:48.427Z,3
2023-05-14T23:00:02.753Z,3
2023-05-14T23:01:16.777Z,3
2023-05-14T23:03:45.073Z,3
2023-05-14T23:04:59.196Z,3
2023-05-14T23:06:13.223Z,3
2023-05-14T23:07:27.462Z,3
2023-05-14T23:09:55.751Z,3
2023-05-14T23:11:09.850Z,3
2023-05-14T23:12:23.979Z,3
2023-05-14T23:14:52.181Z,3
2023-05-14T23:16:06.285Z,3
2023-05-14T23:17:20.465Z,3
2023-05-14T23:19:48.918Z,3
2023-05-14T23:21:02.868Z,3
2023-05-14T23:22:16.939Z,3
2023-05-14T23:24:45.229Z,3
2023-05-14T23:25:59.465Z,3
2023-05-14T23:27:13.535Z,3
2023-05-14T23:28:27.657Z,3
2023-05-14T23:30:55.872Z,3
2023-05-14T23:32:10.270Z,3
2023-05-14T23:33:24.248Z,3
2023-05-14T23:35:52.484Z,3
2023-05-14T23:37:06.582Z,3
2023-05-14T23:38:20.687Z,3
2023-05-14T23:40:49.057Z,2
2023-05-14T23:42:03.128Z,3
2023-05-14T23:43:17.222Z,3
2023-05-14T23:45:45.668Z,3
2023-05-14T23:47:00.768Z,3
2023-05-14T23:48:13.798Z,3
2023-05-14T23:50:42.064Z,3
2023-05-14T23:51:56.235Z,3